createdAt,value
2019-04-19T00:02:04.370Z,78.90
2019-04-19T00:04:29.345Z,79.09
2019-04-19T00:07:10.620Z,79.06
2019-04-19T00:09:43.655Z,79.05
2019-04-19T00:12:21.806Z,78.96
2019-04-19T00:14:40.635Z,78.87
2019-04-19T00:17:13.934Z,78.96
2019-04-19T00:20:04.279Z,78.78
2019-04-19T00:22:31.813Z,78.73
2019-04-19T00:24:47.878Z,78.89
2019-04-19T00:27:20.216Z,79.10
2019-04-19T00:29:58.177Z,79.21
2019-04-19T00:32:36.049Z,79.39
2019-04-19T00:34:54.826Z,79.38
2019-04-19T00:37:25.088Z,79.47
2019-04-19T00:40:22.680Z,79.59
2019-04-19T00:42:57.181Z,79.42
2019-04-19T00:46:00.823Z,79.47
2019-04-19T00:48:29.586Z,79.46
2019-04-19T00:50:59.068Z,79.80
2019-04-19T00:53:28.663Z,80.21
2019-04-19T00:55:59.894Z,80.48
2019-04-19T00:58:26.409Z,80.96
2019-04-19T01:01:04.686Z,81.13
2019-04-19T01:03:32.860Z,81.28
2019-04-19T01:06:04.788Z,81.36
2019-04-19T01:08:30.713Z,80.77
2019-04-19T01:11:17.178Z,80.83
2019-04-19T01:13:51.439Z,81.21
2019-04-19T01:16:15.870Z,81.23
2019-04-19T01:18:48.404Z,81.23
2019-04-19T01:21:09.492Z,81.38
2019-04-19T01:23:46.576Z,81.93
2019-04-19T01:26:14.870Z,81.91
2019-04-19T01:28:52.925Z,82.19
2019-04-19T01:31:21.401Z,81.89
2019-04-19T01:33:49.152Z,81.92
2019-04-19T01:36:28.862Z,82.10
2019-04-19T01:39:11.785Z,81.82
2019-04-19T01:41:37.118Z,81.48
2019-04-19T01:44:25.141Z,81.60
2019-04-19T01:47:07.849Z,81.75
2019-04-19T01:50:07.541Z,81.85
2019-04-19T01:55:09.748Z,82.48
2019-04-19T01:57:30.434Z,82.71
2019-04-19T02:00:02.641Z,82.40
2019-04-19T02:02:36.746Z,82.73
2019-04-19T02:05:12.362Z,82.56
2019-04-19T02:07:40.419Z,82.45
2019-04-19T02:10:57.431Z,82.58
2019-04-19T02:13:51.102Z,82.65
2019-04-19T02:16:17.024Z,82.58
2019-04-19T02:18:45.297Z,81.71
2019-04-19T02:21:22.711Z,81.89
2019-04-19T02:23:52.651Z,82.74
2019-04-19T02:26:21.535Z,83.15
2019-04-19T02:28:51.395Z,83.77
2019-04-19T02:31:43.569Z,83.73
2019-04-19T02:34:32.074Z,83.72
2019-04-19T02:37:02.437Z,83.35
2019-04-19T02:39:28.814Z,83.41
2019-04-19T02:42:00.174Z,83.66
2019-04-19T02:44:23.883Z,83.90
2019-04-19T02:47:09.201Z,84.03
2019-04-19T02:49:54.495Z,84.12
2019-04-19T02:57:39.551Z,84.55
2019-04-19T03:00:47.195Z,84.87
2019-04-19T03:03:15.176Z,84.81
2019-04-19T03:05:41.877Z,84.95
2019-04-19T03:07:53.755Z,84.85
2019-04-19T03:10:26.521Z,85.05
2019-04-19T03:13:13.886Z,85.12
2019-04-19T03:18:27.731Z,85.21
2019-04-19T03:20:47.512Z,85.33
2019-04-19T03:23:23.238Z,85.32
2019-04-19T03:25:48.239Z,85.59
2019-04-19T03:28:22.183Z,85.34
2019-04-19T03:31:13.977Z,85.31
2019-04-19T03:33:44.085Z,85.43
2019-04-19T03:36:05.877Z,85.63
2019-04-19T03:38:40.427Z,85.51
2019-04-19T03:41:18.525Z,85.42
2019-04-19T03:43:48.946Z,85.80
2019-04-19T03:46:48.610Z,85.99
2019-04-19T03:49:08.994Z,85.89
2019-04-19T03:51:26.249Z,85.72
2019-04-19T03:54:11.644Z,85.73
2019-04-19T03:56:34.456Z,85.88
2019-04-19T03:58:43.807Z,86.34
2019-04-19T04:01:14.987Z,86.18
2019-04-19T04:03:49.068Z,86.09
2019-04-19T04:06:23.005Z,86.11
2019-04-19T04:08:59.002Z,86.06
2019-04-19T04:11:53.060Z,86.13
2019-04-19T04:14:45.643Z,86.13
2019-04-19T04:17:07.922Z,86.31
2019-04-19T04:19:38.252Z,86.79
2019-04-19T04:22:16.714Z,86.56
2019-04-19T04:24:53.419Z,86.58
2019-04-19T04:27:30.246Z,86.61
2019-04-19T04:30:00.251Z,86.82
2019-04-19T04:32:34.659Z,87.01
2019-04-19T04:35:10.475Z,86.92
2019-04-19T04:37:42.110Z,86.81
2019-04-19T04:39:57.737Z,86.75
2019-04-19T04:42:33.962Z,86.80
2019-04-19T04:45:23.229Z,86.87
2019-04-19T04:47:53.624Z,86.87
2019-04-19T04:50:54.965Z,86.80
2019-04-19T04:53:06.680Z,86.53
2019-04-19T04:55:45.091Z,85.57
2019-04-19T04:58:19.767Z,84.62
2019-04-19T05:00:50.937Z,83.76
2019-04-19T05:03:35.578Z,83.20
2019-04-19T05:06:07.825Z,83.00
2019-04-19T05:08:40.119Z,82.25
2019-04-19T05:11:13.682Z,81.30
2019-04-19T05:13:43.838Z,80.85
2019-04-19T05:16:22.214Z,80.10
2019-04-19T05:18:45.608Z,79.35
2019-04-19T05:21:21.871Z,78.43
2019-04-19T05:24:01.656Z,77.42
2019-04-19T05:26:37.476Z,75.69
2019-04-19T05:28:56.546Z,74.73
2019-04-19T05:31:16.568Z,73.54
2019-04-19T05:33:51.666Z,72.93
2019-04-19T05:36:34.810Z,72.53
2019-04-19T05:39:12.621Z,71.83
2019-04-19T05:42:03.832Z,70.68
2019-04-19T05:45:04.817Z,69.98
2019-04-19T05:47:23.942Z,70.13
2019-04-19T05:49:56.428Z,70.17
2019-04-19T05:52:28.747Z,69.47
2019-04-19T05:54:42.964Z,68.38
2019-04-19T05:57:31.911Z,67.45
2019-04-19T05:59:54.788Z,66.98
2019-04-19T06:02:27.441Z,66.58
2019-04-19T06:05:15.584Z,65.74
2019-04-19T06:07:39.040Z,65.74
2019-04-19T06:09:54.142Z,65.09
2019-04-19T06:12:28.598Z,63.67
2019-04-19T06:15:19.127Z,62.68
2019-04-19T06:17:56.703Z,61.69
2019-04-19T06:20:30.493Z,59.50
2019-04-19T06:23:02.758Z,57.24
2019-04-19T06:25:47.679Z,56.30
2019-04-19T06:30:48.262Z,55.36
2019-04-19T06:33:18.309Z,54.21
2019-04-19T06:35:38.700Z,52.71
2019-04-19T06:38:01.295Z,51.09
2019-04-19T06:40:34.412Z,49.71
2019-04-19T06:43:11.329Z,48.66
2019-04-19T06:45:55.529Z,47.17
2019-04-19T06:48:14.311Z,47.15
2019-04-19T06:50:43.770Z,46.10
2019-04-19T06:53:12.392Z,45.12
2019-04-19T06:55:48.019Z,44.13
2019-04-19T06:58:21.808Z,42.39
2019-04-19T07:01:00.693Z,41.49
2019-04-19T07:03:19.609Z,40.60
2019-04-19T07:06:09.055Z,39.05
2019-04-19T07:11:16.533Z,37.47
2019-04-19T07:13:39.387Z,36.20
2019-04-19T07:16:28.932Z,36.02
2019-04-19T07:18:42.658Z,35.89
2019-04-19T07:21:21.558Z,35.31
2019-04-19T07:23:59.189Z,33.96
2019-04-19T07:26:26.974Z,33.72
2019-04-19T07:28:41.420Z,33.24
2019-04-19T07:31:13.473Z,32.70
2019-04-19T07:33:53.761Z,31.96
2019-04-19T07:36:39.083Z,31.30
2019-04-19T07:39:09.276Z,30.10
2019-04-19T07:41:38.362Z,30.33
2019-04-19T07:44:21.320Z,28.89
2019-04-19T07:47:20.150Z,29.12
2019-04-19T07:49:46.510Z,28.30
2019-04-19T07:52:16.348Z,28.36
2019-04-19T07:54:42.356Z,26.45
2019-04-19T07:57:56.115Z,26.72
2019-04-19T08:00:16.742Z,25.90
2019-04-19T08:05:26.737Z,24.63
2019-04-19T08:08:01.153Z,23.68
2019-04-19T08:10:18.500Z,24.00
2019-04-19T08:12:52.059Z,22.71
2019-04-19T08:18:13.366Z,22.16
2019-04-19T08:27:50.671Z,20.44
2019-04-19T08:30:17.814Z,20.62
2019-04-19T08:32:45.030Z,20.36
2019-04-19T08:35:17.709Z,21.17
2019-04-19T08:37:48.973Z,21.41
2019-04-19T08:40:38.208Z,20.30
2019-04-19T08:43:13.258Z,19.72
2019-04-19T08:46:01.267Z,19.08
2019-04-19T08:48:59.404Z,18.62
2019-04-19T08:51:59.992Z,17.80
2019-04-19T08:54:56.198Z,17.06
2019-04-19T08:57:08.167Z,16.91
2019-04-19T08:59:53.858Z,17.16
2019-04-19T09:02:24.935Z,17.13
2019-04-19T09:04:54.798Z,16.77
2019-04-19T09:10:17.778Z,15.96
2019-04-19T09:12:31.288Z,15.46
2019-04-19T09:15:11.708Z,15.47
2019-04-19T09:17:59.339Z,15.75
2019-04-19T09:20:15.655Z,15.14
2019-04-19T09:22:56.587Z,14.90
2019-04-19T09:25:31.795Z,14.68
2019-04-19T09:28:15.092Z,14.56
2019-04-19T09:30:43.782Z,14.55
2019-04-19T09:33:01.136Z,16.17
2019-04-19T09:35:39.904Z,15.33
2019-04-19T09:38:15.070Z,14.90
2019-04-19T09:40:44.543Z,15.38
2019-04-19T09:43:24.111Z,14.26
2019-04-19T09:45:40.460Z,13.85
2019-04-19T09:48:31.650Z,13.48
2019-04-19T09:51:00.021Z,13.15
2019-04-19T09:53:51.897Z,14.13
2019-04-19T09:56:07.024Z,13.49
2019-04-19T09:58:40.476Z,13.23
2019-04-19T10:01:06.545Z,12.63
2019-04-19T10:03:44.329Z,12.00
2019-04-19T10:06:10.909Z,12.47
2019-04-19T10:08:42.140Z,13.30
2019-04-19T10:11:12.811Z,13.48
2019-04-19T10:13:43.987Z,12.62
2019-04-19T10:16:34.684Z,13.09
2019-04-19T10:19:07.782Z,12.95
2019-04-19T10:21:52.565Z,12.15
2019-04-19T10:24:24.274Z,11.08
2019-04-19T10:27:17.138Z,10.74
2019-04-19T10:29:49.106Z,11.24
2019-04-19T10:32:38.814Z,10.40
2019-04-19T10:35:09.595Z,11.97
2019-04-19T10:37:40.132Z,12.84
2019-04-19T10:40:13.885Z,12.39
2019-04-19T10:42:45.184Z,12.71
2019-04-19T10:45:16.313Z,12.76
2019-04-19T10:47:47.611Z,12.31
2019-04-19T10:50:30.299Z,12.64
2019-04-19T10:52:52.592Z,15.74
2019-04-19T10:55:26.515Z,16.07
2019-04-19T10:57:58.892Z,16.90
2019-04-19T11:00:29.659Z,17.02
2019-04-19T11:03:01.127Z,17.04
2019-04-19T11:05:34.541Z,18.35
2019-04-19T11:08:05.660Z,21.58
2019-04-19T11:10:36.392Z,20.07
2019-04-19T11:13:06.894Z,20.74
2019-04-19T11:15:38.244Z,21.38
2019-04-19T11:18:09.755Z,21.74
2019-04-19T11:20:47.302Z,21.84
2019-04-19T11:23:13.657Z,21.88
2019-04-19T11:25:46.123Z,21.14
2019-04-19T11:28:16.457Z,21.61
2019-04-19T11:30:52.997Z,21.61
2019-04-19T11:33:25.762Z,24.25
2019-04-19T11:35:57.522Z,25.03
2019-04-19T11:38:29.097Z,23.82
2019-04-19T11:41:00.921Z,24.78
2019-04-19T11:43:31.825Z,25.68
2019-04-19T11:46:04.054Z,25.04
2019-04-19T11:48:35.909Z,25.57
2019-04-19T11:51:07.781Z,24.65
2019-04-19T11:53:42.900Z,25.54
2019-04-19T11:56:54.234Z,26.57
2019-04-19T11:59:37.056Z,25.81
2019-04-19T12:02:01.868Z,27.29
2019-04-19T12:04:32.489Z,26.19
2019-04-19T12:07:02.880Z,28.78
2019-04-19T12:09:34.359Z,28.02
2019-04-19T12:12:05.426Z,27.19
2019-04-19T12:14:36.192Z,29.06
2019-04-19T12:17:07.101Z,27.47
2019-04-19T12:19:46.387Z,27.76
2019-04-19T12:22:10.880Z,26.13
2019-04-19T12:24:42.569Z,25.30
2019-04-19T12:27:13.815Z,28.17
2019-04-19T12:29:48.209Z,26.49
2019-04-19T12:32:17.191Z,27.10
2019-04-19T12:34:48.651Z,25.62
2019-04-19T12:37:19.469Z,24.96
2019-04-19T12:39:50.837Z,26.68
2019-04-19T12:42:46.717Z,27.11
2019-04-19T12:45:19.796Z,26.13
2019-04-19T12:47:51.168Z,25.75
2019-04-19T12:50:23.976Z,25.65
2019-04-19T12:52:54.260Z,24.73
2019-04-19T12:55:24.412Z,24.94
2019-04-19T12:58:01.891Z,24.81
2019-04-19T13:00:50.645Z,26.17
2019-04-19T13:03:39.618Z,26.57
2019-04-19T13:06:11.504Z,27.52
2019-04-19T13:08:43.174Z,24.29
2019-04-19T13:11:15.254Z,21.35
2019-04-19T13:13:45.890Z,19.44
2019-04-19T13:16:16.679Z,18.11
2019-04-19T13:18:48.408Z,17.68
2019-04-19T13:21:19.876Z,18.14
2019-04-19T13:23:50.627Z,17.04
2019-04-19T13:26:21.149Z,16.13
2019-04-19T13:28:53.382Z,16.15
2019-04-19T13:31:24.832Z,15.67
2019-04-19T13:33:55.573Z,16.42
2019-04-19T13:36:45.078Z,16.75
2019-04-19T13:39:34.307Z,16.62
2019-04-19T13:42:10.978Z,16.60
2019-04-19T13:44:41.221Z,16.13
2019-04-19T13:47:12.827Z,15.33
2019-04-19T13:49:44.417Z,15.19
2019-04-19T13:52:14.903Z,14.97
2019-04-19T13:54:45.332Z,15.25
2019-04-19T13:57:15.669Z,15.40
2019-04-19T13:59:54.085Z,14.91
2019-04-19T14:02:20.467Z,14.80
2019-04-19T14:04:50.298Z,15.79
2019-04-19T14:07:23.122Z,16.63
2019-04-19T14:09:54.823Z,19.46
2019-04-19T14:12:25.396Z,18.94
2019-04-19T14:14:56.987Z,18.98
2019-04-19T14:17:27.518Z,19.87
2019-04-19T14:19:58.628Z,21.14
2019-04-19T14:22:29.631Z,21.00
2019-04-19T14:25:01.015Z,21.46
2019-04-19T14:27:31.367Z,22.14
2019-04-19T14:30:01.771Z,21.59
2019-04-19T14:32:33.150Z,21.45
2019-04-19T14:35:03.736Z,21.67
2019-04-19T14:37:34.160Z,23.49
2019-04-19T14:40:04.982Z,21.44
2019-04-19T14:42:36.323Z,22.67
2019-04-19T14:45:08.014Z,23.37
2019-04-19T14:47:39.106Z,22.22
2019-04-19T14:50:10.668Z,22.08
2019-04-19T14:52:42.178Z,22.01
2019-04-19T14:55:13.742Z,23.19
2019-04-19T14:57:44.393Z,22.40
2019-04-19T15:00:18.869Z,23.92
2019-04-19T15:02:56.784Z,23.20
2019-04-19T15:05:30.085Z,23.56
2019-04-19T15:08:01.156Z,23.12
2019-04-19T15:10:33.515Z,23.91
2019-04-19T15:13:04.931Z,24.89
2019-04-19T15:15:35.746Z,23.19
2019-04-19T15:18:06.634Z,24.05
2019-04-19T15:20:38.089Z,22.77
2019-04-19T15:23:08.609Z,24.05
2019-04-19T15:25:40.136Z,22.81
2019-04-19T15:28:11.085Z,22.98
2019-04-19T15:30:43.504Z,24.18
2019-04-19T15:33:14.307Z,24.56
2019-04-19T15:35:45.749Z,24.94
2019-04-19T15:38:16.150Z,24.32
2019-04-19T15:40:46.302Z,24.07
2019-04-19T15:43:17.091Z,24.67
2019-04-19T15:45:47.678Z,25.83
2019-04-19T15:48:28.743Z,26.64
2019-04-19T15:50:50.180Z,25.84
2019-04-19T15:53:22.135Z,24.47
2019-04-19T15:55:53.876Z,23.42
2019-04-19T15:58:24.619Z,24.10
2019-04-19T16:00:59.484Z,25.24
2019-04-19T16:03:52.171Z,25.46
2019-04-19T16:06:50.589Z,26.62
2019-04-19T16:09:46.548Z,26.65
2019-04-19T16:12:27.143Z,27.62
2019-04-19T16:14:57.853Z,24.53
2019-04-19T16:17:29.417Z,24.46
2019-04-19T16:19:59.740Z,25.23
2019-04-19T16:22:32.105Z,26.81
2019-04-19T16:25:03.154Z,24.91
2019-04-19T16:27:33.715Z,26.24
2019-04-19T16:30:05.929Z,25.28
2019-04-19T16:32:37.027Z,26.29
2019-04-19T16:35:07.864Z,25.87
2019-04-19T16:37:39.255Z,27.58
2019-04-19T16:40:16.306Z,27.92
2019-04-19T16:42:47.481Z,28.23
2019-04-19T16:45:19.833Z,26.24
2019-04-19T16:47:51.384Z,26.00
2019-04-19T16:50:22.755Z,27.29
2019-04-19T16:52:54.571Z,26.24
2019-04-19T16:55:25.442Z,26.10
2019-04-19T16:57:56.611Z,27.31
2019-04-19T17:00:45.096Z,28.35
2019-04-19T17:03:17.335Z,27.02
2019-04-19T17:05:48.782Z,28.18
2019-04-19T17:08:19.644Z,27.37
2019-04-19T17:10:50.176Z,26.72
2019-04-19T17:13:20.649Z,27.51
2019-04-19T17:16:15.776Z,29.98
2019-04-19T17:19:08.797Z,30.73
2019-04-19T17:21:50.511Z,29.76
2019-04-19T17:24:14.165Z,29.18
2019-04-19T17:26:44.814Z,30.92
2019-04-19T17:29:15.184Z,30.37
2019-04-19T17:31:45.474Z,30.55
2019-04-19T17:34:16.127Z,30.76
2019-04-19T17:36:46.783Z,33.74
2019-04-19T17:39:17.105Z,35.58
2019-04-19T17:41:48.404Z,36.69
2019-04-19T17:44:19.782Z,35.70
2019-04-19T17:46:50.836Z,37.44
2019-04-19T17:49:22.437Z,38.16
2019-04-19T17:52:03.286Z,39.42
2019-04-19T17:54:44.559Z,40.15
2019-04-19T17:56:57.402Z,39.24
2019-04-19T17:59:27.971Z,39.90
2019-04-19T18:01:59.103Z,41.63
2019-04-19T18:04:30.330Z,42.28
2019-04-19T18:07:03.048Z,43.30
2019-04-19T18:09:33.159Z,43.19
2019-04-19T18:12:03.539Z,42.87
2019-04-19T18:14:34.270Z,43.59
2019-04-19T18:17:04.624Z,43.74
2019-04-19T18:19:38.153Z,44.42
2019-04-19T18:22:16.402Z,45.07
2019-04-19T18:24:46.928Z,46.39
2019-04-19T18:27:18.058Z,45.33
2019-04-19T18:29:44.260Z,45.15
2019-04-19T18:32:25.916Z,45.19
2019-04-19T18:34:56.325Z,46.11
2019-04-19T18:37:31.067Z,48.30
2019-04-19T18:39:58.798Z,48.30
2019-04-19T18:42:29.019Z,47.73
2019-04-19T18:45:02.864Z,47.27
2019-04-19T18:47:32.687Z,46.96
2019-04-19T18:50:04.472Z,48.08
2019-04-19T18:52:45.693Z,48.73
2019-04-19T18:55:10.601Z,50.88
2019-04-19T18:57:44.407Z,50.69
2019-04-19T19:00:12.790Z,50.45
2019-04-19T19:02:45.849Z,51.64
2019-04-19T19:05:16.624Z,51.89
2019-04-19T19:07:49.356Z,53.28
2019-04-19T19:10:25.884Z,53.36
2019-04-19T19:12:51.940Z,53.82
2019-04-19T19:15:25.084Z,54.03
2019-04-19T19:17:59.050Z,54.01
2019-04-19T19:20:36.699Z,53.88
2019-04-19T19:23:19.236Z,54.29
2019-04-19T19:25:48.160Z,54.68
2019-04-19T19:28:16.707Z,55.48
2019-04-19T19:30:47.058Z,55.38
2019-04-19T19:38:27.888Z,56.81
2019-04-19T19:41:08.099Z,58.41
2019-04-19T19:41:43.634Z,55.96
2019-04-19T19:41:43.809Z,56.67
2019-04-19T19:43:42.258Z,59.31
2019-04-19T19:46:23.058Z,59.20
2019-04-19T19:49:07.815Z,59.20
2019-04-19T19:51:23.873Z,59.44
2019-04-19T19:54:02.468Z,58.83
2019-04-19T19:56:35.397Z,59.85
2019-04-19T19:58:49.429Z,59.96
2019-04-19T20:01:26.711Z,60.92
2019-04-19T20:03:50.543Z,60.91
2019-04-19T20:06:24.557Z,61.17
2019-04-19T20:08:55.861Z,61.90
2019-04-19T20:11:30.022Z,61.49
2019-04-19T20:14:01.144Z,61.94
2019-04-19T20:16:33.328Z,62.07
2019-04-19T20:19:05.018Z,62.27
2019-04-19T20:21:36.816Z,62.30
2019-04-19T20:24:16.790Z,62.43
2019-04-19T20:26:54.985Z,62.41
2019-04-19T20:29:21.295Z,63.52
2019-04-19T20:39:48.290Z,64.89
2019-04-19T20:42:27.022Z,64.41
2019-04-19T20:45:00.840Z,64.67
2019-04-19T20:47:29.063Z,65.00
2019-04-19T20:49:58.336Z,65.54
2019-04-19T20:52:44.206Z,65.79
2019-04-19T20:55:25.202Z,66.58
2019-04-19T20:58:01.036Z,66.58
2019-04-19T21:00:33.440Z,67.59
2019-04-19T21:03:01.937Z,67.62
2019-04-19T21:05:35.685Z,67.50
2019-04-19T21:08:10.669Z,67.20
2019-04-19T21:10:42.590Z,67.82
2019-04-19T21:13:14.353Z,68.27
2019-04-19T21:15:45.210Z,68.20
2019-04-19T21:18:21.863Z,68.43
2019-04-19T21:20:50.135Z,68.58
2019-04-19T21:23:24.460Z,68.46
2019-04-19T21:25:57.186Z,68.60
2019-04-19T21:28:33.492Z,68.77
2019-04-19T21:31:00.851Z,69.31
2019-04-19T21:33:29.137Z,69.30
2019-04-19T21:36:04.619Z,69.90
2019-04-19T21:38:31.875Z,69.65
2019-04-19T21:41:13.337Z,69.82
2019-04-19T21:43:40.714Z,69.99
2019-04-19T21:46:12.579Z,70.62
2019-04-19T21:48:44.482Z,70.70
2019-04-19T21:51:24.509Z,71.09
2019-04-19T21:53:50.061Z,71.32
2019-04-19T21:56:21.682Z,71.35
2019-04-19T21:58:54.961Z,71.43
2019-04-19T22:01:25.850Z,71.58
2019-04-19T22:04:03.593Z,72.11
2019-04-19T22:06:31.387Z,72.67
2019-04-19T22:09:06.738Z,72.56
2019-04-19T22:11:32.423Z,72.92
2019-04-19T22:14:04.594Z,72.69
2019-04-19T22:16:39.747Z,72.87
2019-04-19T22:19:07.770Z,73.03
2019-04-19T22:21:44.051Z,72.99
2019-04-19T22:24:10.906Z,73.46
2019-04-19T22:26:47.401Z,74.09
2019-04-19T22:29:13.546Z,74.40
2019-04-19T22:31:43.733Z,74.12
2019-04-19T22:34:14.751Z,74.26
2019-04-19T22:36:48.554Z,74.43
2019-04-19T22:39:19.282Z,74.60
2019-04-19T22:41:50.714Z,74.92
2019-04-19T22:44:22.961Z,75.17
2019-04-19T22:46:56.522Z,75.33
2019-04-19T22:49:28.173Z,75.55
2019-04-19T22:51:58.790Z,75.55
2019-04-19T22:54:29.126Z,75.75
2019-04-19T22:57:09.378Z,75.93
2019-04-19T22:59:31.781Z,76.59
2019-04-19T23:02:17.189Z,76.58
2019-04-19T23:04:49.124Z,76.54
2019-04-19T23:07:20.737Z,76.16
2019-04-19T23:09:51.096Z,76.24
2019-04-19T23:12:22.609Z,76.72
2019-04-19T23:14:53.276Z,77.02
2019-04-19T23:17:29.328Z,77.12
2019-04-19T23:19:55.856Z,77.32
2019-04-19T23:22:31.936Z,77.52
2019-04-19T23:25:04.049Z,77.58
2019-04-19T23:27:40.779Z,77.72
2019-04-19T23:30:19.716Z,77.86
2019-04-19T23:32:48.414Z,78.10
2019-04-19T23:35:23.085Z,78.54
2019-04-19T23:37:51.494Z,79.12
2019-04-19T23:40:28.211Z,78.88
2019-04-19T23:42:55.518Z,78.99
2019-04-19T23:45:32.939Z,79.41
2019-04-19T23:48:00.279Z,79.57
2019-04-19T23:50:34.075Z,79.52
2019-04-19T23:53:05.575Z,79.12
2019-04-19T23:55:36.191Z,79.02
2019-04-19T23:58:06.570Z,79.23
